createdAt,value
2022-11-14T00:02:22.809Z,10.36
2022-11-14T00:04:57.454Z,10.39
2022-11-14T00:07:32.569Z,10.39
2022-11-14T00:10:05.210Z,10.39
2022-11-14T00:12:35.982Z,10.32
2022-11-14T00:15:09.797Z,10.15
2022-11-14T00:17:42.614Z,9.98
2022-11-14T00:20:13.831Z,9.86
2022-11-14T00:22:46.140Z,9.82
2022-11-14T00:25:18.584Z,9.78
2022-11-14T00:27:50.790Z,9.69
2022-11-14T00:30:23.139Z,9.63
2022-11-14T00:32:55.406Z,9.63
2022-11-14T00:35:30.176Z,9.55
2022-11-14T00:38:02.444Z,9.41
2022-11-14T00:40:34.687Z,9.28
2022-11-14T00:43:06.985Z,9.13
2022-11-14T00:45:39.236Z,9.02
2022-11-14T00:48:11.519Z,8.97
2022-11-14T00:50:43.892Z,8.98
2022-11-14T00:53:16.177Z,8.97
2022-11-14T00:55:48.429Z,8.98
2022-11-14T00:58:20.625Z,9.06
2022-11-14T01:00:53.116Z,9.14
2022-11-14T01:03:25.434Z,9.20
2022-11-14T01:05:57.764Z,9.28
2022-11-14T01:08:30.260Z,9.35
2022-11-14T01:11:01.084Z,9.43
2022-11-14T01:13:35.551Z,9.50
2022-11-14T01:16:08.847Z,9.56
2022-11-14T01:18:42.560Z,9.56
2022-11-14T01:21:15.948Z,9.56
2022-11-14T01:23:48.271Z,9.58
2022-11-14T01:26:20.536Z,9.66
2022-11-14T01:28:52.694Z,9.66
2022-11-14T01:31:26.414Z,9.61
2022-11-14T01:33:58.651Z,9.53
2022-11-14T01:36:30.844Z,9.43
2022-11-14T01:39:03.098Z,9.37
2022-11-14T01:41:35.406Z,9.31
2022-11-14T01:44:15.255Z,9.23
2022-11-14T01:46:49.662Z,9.00
2022-11-14T01:49:23.920Z,8.81
2022-11-14T01:51:59.380Z,8.67
2022-11-14T01:54:33.872Z,8.55
2022-11-14T01:57:06.755Z,8.52
2022-11-14T01:59:42.620Z,8.51
2022-11-14T02:02:17.595Z,8.51
2022-11-14T02:04:52.143Z,8.52
2022-11-14T02:07:25.744Z,8.50
2022-11-14T02:09:58.286Z,8.48
2022-11-14T02:12:30.688Z,8.44
2022-11-14T02:15:04.481Z,8.36
2022-11-14T02:17:36.935Z,8.33
2022-11-14T02:20:24.129Z,8.25
2022-11-14T02:22:56.478Z,8.16
2022-11-14T02:25:29.004Z,8.21
2022-11-14T02:28:01.394Z,8.25
2022-11-14T02:30:33.751Z,8.27
2022-11-14T02:33:11.012Z,8.25
2022-11-14T02:35:44.182Z,8.18
2022-11-14T02:38:18.918Z,8.03
2022-11-14T02:40:51.626Z,7.89
2022-11-14T02:43:22.280Z,7.79
2022-11-14T02:45:54.604Z,7.70
2022-11-14T02:48:26.997Z,7.68
2022-11-14T02:50:59.456Z,7.68
2022-11-14T02:53:31.695Z,7.66
2022-11-14T02:56:04.071Z,7.62
2022-11-14T02:58:36.293Z,7.60
2022-11-14T03:01:24.900Z,7.58
2022-11-14T03:03:57.360Z,7.51
2022-11-14T03:06:29.496Z,7.50
2022-11-14T03:09:01.875Z,7.47
2022-11-14T03:11:35.096Z,7.41
2022-11-14T03:14:07.341Z,7.31
2022-11-14T03:16:40.531Z,7.23
2022-11-14T03:19:12.804Z,7.18
2022-11-14T03:21:45.286Z,7.14
2022-11-14T03:24:17.620Z,7.12
2022-11-14T03:26:49.932Z,7.03
2022-11-14T03:29:22.310Z,6.93
2022-11-14T03:31:54.717Z,6.84
2022-11-14T03:34:27.038Z,6.76
2022-11-14T03:37:00.477Z,6.65
2022-11-14T03:39:32.819Z,6.58
2022-11-14T03:42:05.122Z,6.55
2022-11-14T03:44:38.247Z,6.57
2022-11-14T03:47:10.588Z,6.63
2022-11-14T03:49:45.113Z,6.64
2022-11-14T03:52:17.494Z,6.65
2022-11-14T03:54:50.463Z,6.71
2022-11-14T03:57:22.774Z,6.82
2022-11-14T03:59:55.009Z,6.85
2022-11-14T04:02:27.220Z,6.82
2022-11-14T04:04:59.439Z,6.77
2022-11-14T04:07:31.789Z,6.74
2022-11-14T04:10:04.131Z,6.71
2022-11-14T04:12:36.452Z,6.77
2022-11-14T04:15:10.585Z,6.81
2022-11-14T04:17:42.900Z,6.85
2022-11-14T04:20:16.469Z,6.90
2022-11-14T04:22:49.523Z,6.92
2022-11-14T04:25:22.503Z,6.99
2022-11-14T04:27:54.844Z,7.06
2022-11-14T04:30:30.880Z,7.11
2022-11-14T04:33:07.070Z,7.18
2022-11-14T04:35:37.827Z,7.24
2022-11-14T04:38:10.578Z,7.26
2022-11-14T04:40:41.246Z,7.32
2022-11-14T04:43:13.921Z,7.37
2022-11-14T04:45:44.574Z,7.37
2022-11-14T04:48:17.041Z,7.34
2022-11-14T04:50:49.544Z,7.36
2022-11-14T04:53:22.309Z,7.42
2022-11-14T04:55:52.905Z,7.49
2022-11-14T04:58:25.116Z,7.56
2022-11-14T05:00:57.986Z,7.64
2022-11-14T05:03:30.582Z,7.74
2022-11-14T05:06:03.417Z,7.83
2022-11-14T05:08:36.811Z,7.89
2022-11-14T05:11:09.760Z,7.94
2022-11-14T05:13:43.868Z,7.97
2022-11-14T05:16:17.184Z,7.99
2022-11-14T05:18:49.997Z,8.03
2022-11-14T05:21:23.248Z,8.06
2022-11-14T05:23:56.803Z,8.05
2022-11-14T05:26:30.232Z,8.03
2022-11-14T05:29:03.405Z,8.01
2022-11-14T05:31:37.213Z,8.01
2022-11-14T05:34:11.433Z,8.00
2022-11-14T05:36:45.241Z,7.96
2022-11-14T05:39:19.794Z,7.96
2022-11-14T05:41:53.261Z,7.96
2022-11-14T05:44:28.718Z,7.97
2022-11-14T05:51:32.321Z,7.95
2022-11-14T05:54:05.551Z,8.03
2022-11-14T05:56:39.613Z,8.07
2022-11-14T05:59:11.845Z,8.16
2022-11-14T06:01:46.346Z,8.20
2022-11-14T06:04:20.311Z,8.21
2022-11-14T06:06:53.564Z,8.28
2022-11-14T06:16:17.520Z,8.64
2022-11-14T06:18:50.126Z,8.72
2022-11-14T06:21:24.082Z,8.76
2022-11-14T06:23:56.557Z,8.80
2022-11-14T06:26:31.647Z,8.85
2022-11-14T06:29:03.931Z,8.93
2022-11-14T06:31:36.111Z,8.96
2022-11-14T06:34:09.095Z,8.97
2022-11-14T06:36:41.415Z,8.99
2022-11-14T06:39:13.748Z,8.97
2022-11-14T06:41:45.943Z,8.98
2022-11-14T06:44:18.172Z,9.04
2022-11-14T06:46:50.413Z,9.12
2022-11-14T06:49:22.800Z,9.21
2022-11-14T06:51:55.137Z,9.28
2022-11-14T06:54:27.384Z,9.30
2022-11-14T06:56:59.522Z,9.37
2022-11-14T06:59:31.837Z,9.41
2022-11-14T07:02:04.182Z,9.45
2022-11-14T07:04:36.445Z,9.48
2022-11-14T07:07:08.768Z,9.53
2022-11-14T07:09:41.280Z,9.57
2022-11-14T07:12:13.772Z,9.62
2022-11-14T07:14:45.966Z,9.65
2022-11-14T07:17:18.209Z,9.63
2022-11-14T07:19:50.392Z,9.67
2022-11-14T07:22:22.749Z,9.71
2022-11-14T07:24:55.022Z,9.78
2022-11-14T07:27:27.305Z,9.85
2022-11-14T07:29:59.613Z,9.85
2022-11-14T07:32:31.863Z,9.91
2022-11-14T07:35:04.046Z,9.97
2022-11-14T07:37:36.418Z,10.04
2022-11-14T07:40:10.485Z,10.05
2022-11-14T07:42:42.656Z,10.06
2022-11-14T07:45:15.859Z,10.11
2022-11-14T07:47:48.013Z,10.11
2022-11-14T07:50:20.737Z,10.12
2022-11-14T07:52:55.630Z,10.11
2022-11-14T07:55:27.900Z,10.06
2022-11-14T07:58:01.924Z,10.02
2022-11-14T08:00:34.139Z,10.06
2022-11-14T08:03:06.482Z,10.13
2022-11-14T08:05:38.811Z,10.20
2022-11-14T08:08:11.109Z,10.26
2022-11-14T08:10:45.498Z,10.34
2022-11-14T08:13:31.516Z,10.42
2022-11-14T08:16:13.353Z,10.44
2022-11-14T08:19:02.272Z,10.42
2022-11-14T08:21:34.620Z,10.43
2022-11-14T08:24:07.601Z,10.48
2022-11-14T08:26:40.181Z,10.56
2022-11-14T08:29:10.788Z,10.62
2022-11-14T08:31:43.449Z,10.59
2022-11-14T08:34:14.014Z,10.56
2022-11-14T08:36:46.233Z,10.57
2022-11-14T08:39:18.448Z,10.58
2022-11-14T08:41:50.597Z,10.60
2022-11-14T08:44:22.905Z,10.61
2022-11-14T08:46:55.160Z,10.64
2022-11-14T08:49:27.401Z,10.65
2022-11-14T08:51:59.500Z,10.64
2022-11-14T08:54:31.752Z,10.63
2022-11-14T08:57:05.170Z,10.60
2022-11-14T08:59:37.499Z,10.58
2022-11-14T09:02:10.573Z,10.58
2022-11-14T09:04:43.176Z,10.61
2022-11-14T09:07:15.487Z,10.66
2022-11-14T09:09:48.044Z,10.69
2022-11-14T09:12:19.943Z,10.66
2022-11-14T09:14:52.125Z,10.63
2022-11-14T09:17:24.310Z,10.63
2022-11-14T09:20:02.125Z,10.64
2022-11-14T09:22:35.721Z,10.65
2022-11-14T09:25:09.696Z,10.65
2022-11-14T09:27:41.960Z,10.65
2022-11-14T09:30:16.387Z,10.72
2022-11-14T09:32:48.517Z,10.72
2022-11-14T09:35:20.736Z,10.70
2022-11-14T09:37:53.006Z,10.70
2022-11-14T09:40:25.259Z,10.70
2022-11-14T09:43:15.072Z,10.69
2022-11-14T09:45:52.667Z,10.68
2022-11-14T09:48:27.691Z,10.68
2022-11-14T09:51:09.427Z,10.68
2022-11-14T09:53:47.940Z,10.74
2022-11-14T09:56:25.864Z,10.78
2022-11-14T09:58:58.844Z,10.80
2022-11-14T10:01:38.489Z,10.79
2022-11-14T10:04:18.643Z,10.78
2022-11-14T10:06:59.272Z,10.82
2022-11-14T10:16:12.210Z,11.11
2022-11-14T10:18:52.180Z,11.15
2022-11-14T10:21:39.693Z,11.15
2022-11-14T10:24:37.974Z,11.15
2022-11-14T10:27:15.156Z,11.20
2022-11-14T10:30:00.612Z,11.29
2022-11-14T10:32:41.924Z,11.37
2022-11-14T10:35:18.615Z,11.35
2022-11-14T10:37:57.255Z,11.34
2022-11-14T10:40:32.541Z,11.34
2022-11-14T10:43:13.086Z,11.35
2022-11-14T10:45:48.557Z,11.36
2022-11-14T10:48:30.682Z,11.33
2022-11-14T10:51:05.744Z,11.33
2022-11-14T10:53:47.211Z,11.35
2022-11-14T10:56:19.392Z,11.39
2022-11-14T10:58:51.734Z,11.43
2022-11-14T11:01:41.851Z,11.45
2022-11-14T11:04:23.080Z,11.42
2022-11-14T11:06:56.883Z,11.39
2022-11-14T11:09:47.932Z,11.36
2022-11-14T11:12:23.090Z,11.35
2022-11-14T11:15:15.295Z,11.34
2022-11-14T11:17:57.018Z,11.33
2022-11-14T11:20:32.599Z,11.32
2022-11-14T11:23:08.939Z,11.31
2022-11-14T11:25:41.943Z,11.33
2022-11-14T11:28:17.186Z,11.34
2022-11-14T11:30:58.159Z,11.34
2022-11-14T11:33:32.264Z,11.33
2022-11-14T11:36:08.325Z,11.34
2022-11-14T11:38:42.996Z,11.36
2022-11-14T11:42:02.267Z,11.39
2022-11-14T11:44:19.536Z,11.43
2022-11-14T11:46:59.592Z,11.47
2022-11-14T11:49:41.715Z,11.54
2022-11-14T11:52:17.554Z,11.57
2022-11-14T11:54:57.286Z,11.58
2022-11-14T11:57:32.366Z,11.61
2022-11-14T12:00:15.417Z,11.66
2022-11-14T12:02:50.463Z,11.71
2022-11-14T12:05:30.598Z,11.72
2022-11-14T12:08:06.835Z,11.75
2022-11-14T12:10:42.948Z,11.75
2022-11-14T12:13:58.990Z,11.74
2022-11-14T12:16:56.721Z,11.74
2022-11-14T12:19:49.941Z,11.65
2022-11-14T12:22:37.234Z,11.63
2022-11-14T12:25:30.819Z,11.65
2022-11-14T12:28:40.360Z,11.65
2022-11-14T12:31:16.945Z,11.61
2022-11-14T12:33:52.869Z,11.54
2022-11-14T12:36:31.362Z,11.49
2022-11-14T12:39:04.446Z,11.46
2022-11-14T12:41:39.213Z,11.43
2022-11-14T12:44:36.773Z,11.42
2022-11-14T12:47:25.957Z,11.37
2022-11-14T12:50:06.390Z,11.36
2022-11-14T12:53:01.243Z,11.37
2022-11-14T12:55:58.086Z,11.40
2022-11-14T12:58:59.766Z,11.48
2022-11-14T13:01:56.732Z,11.49
2022-11-14T13:04:36.625Z,11.50
2022-11-14T13:07:22.916Z,11.48
2022-11-14T13:10:04.898Z,11.47
2022-11-14T13:12:55.467Z,11.49
2022-11-14T13:15:49.937Z,11.48
2022-11-14T13:18:45.580Z,11.52
2022-11-14T13:21:45.151Z,11.51
2022-11-14T13:24:20.005Z,11.48
2022-11-14T13:26:56.306Z,11.52
2022-11-14T13:30:03.186Z,11.49
2022-11-14T13:33:05.242Z,11.39
2022-11-14T13:36:02.123Z,11.26
2022-11-14T13:39:08.637Z,11.17
2022-11-14T13:42:35.768Z,11.10
2022-11-14T13:45:52.665Z,11.05
2022-11-14T13:48:54.142Z,11.12
2022-11-14T13:51:42.685Z,11.12
2022-11-14T13:54:18.689Z,11.12
2022-11-14T13:57:03.435Z,11.15
2022-11-14T13:59:50.239Z,11.17
2022-11-14T14:02:52.627Z,11.15
2022-11-14T14:05:39.218Z,11.16
2022-11-14T14:08:25.744Z,11.20
2022-11-14T14:11:07.743Z,11.24
2022-11-14T14:13:53.951Z,11.28
2022-11-14T14:16:42.386Z,11.33
2022-11-14T14:19:25.863Z,11.41
2022-11-14T14:22:03.167Z,11.48
2022-11-14T14:24:45.430Z,11.55
2022-11-14T14:27:24.752Z,11.57
2022-11-14T14:30:04.158Z,11.53
2022-11-14T14:32:42.880Z,11.48
2022-11-14T14:35:35.610Z,11.48
2022-11-14T14:44:32.019Z,11.42
2022-11-14T14:47:18.627Z,11.34
2022-11-14T14:49:51.088Z,11.36
2022-11-14T14:52:27.649Z,11.37
2022-11-14T14:55:10.565Z,11.37
2022-11-14T14:57:53.955Z,11.36
2022-11-14T15:00:28.783Z,11.34
2022-11-14T15:03:02.190Z,11.32
2022-11-14T15:05:32.915Z,11.33
2022-11-14T15:08:07.033Z,11.33
2022-11-14T15:10:48.472Z,11.31
2022-11-14T15:13:21.220Z,11.32
2022-11-14T15:15:53.668Z,11.33
2022-11-14T15:18:29.953Z,11.31
2022-11-14T15:21:14.958Z,11.26
2022-11-14T15:23:47.339Z,11.18
2022-11-14T15:26:20.889Z,11.16
2022-11-14T15:28:53.245Z,11.14
2022-11-14T15:31:25.770Z,11.13
2022-11-14T15:34:22.866Z,11.15
2022-11-14T15:37:21.519Z,11.17
2022-11-14T15:39:53.823Z,11.17
2022-11-14T15:42:31.672Z,11.15
2022-11-14T15:45:21.555Z,11.07
2022-11-14T15:48:06.287Z,11.01
2022-11-14T15:50:38.646Z,10.98
2022-11-14T19:07:53.403Z,10.49
2022-11-14T19:10:49.496Z,10.47
2022-11-14T19:13:21.692Z,10.48
2022-11-14T19:15:54.022Z,10.52
2022-11-14T19:18:26.656Z,10.53
2022-11-14T19:21:03.062Z,10.54
2022-11-14T19:23:36.154Z,10.53
2022-11-14T19:26:08.634Z,10.53
2022-11-14T19:28:41.133Z,10.55
2022-11-14T19:31:12.618Z,10.56
2022-11-14T19:33:45.436Z,10.51
2022-11-14T19:36:32.564Z,10.50
2022-11-14T19:39:11.442Z,10.49
2022-11-14T19:41:42.095Z,10.46
2022-11-14T19:44:14.359Z,10.42
2022-11-14T19:46:48.018Z,10.32
2022-11-14T19:49:20.599Z,10.27
2022-11-14T19:51:52.882Z,10.26
2022-11-14T19:54:25.150Z,10.31
2022-11-14T19:56:57.354Z,10.28
2022-11-14T19:59:30.809Z,10.26
2022-11-14T20:02:03.230Z,10.32
2022-11-14T20:04:38.025Z,10.39
2022-11-14T20:07:10.636Z,10.40
2022-11-14T20:09:43.029Z,10.35
2022-11-14T20:12:15.580Z,10.29
2022-11-14T20:14:48.076Z,10.31
2022-11-14T20:17:20.378Z,10.35
2022-11-14T20:19:52.749Z,10.36
2022-11-14T20:22:25.155Z,10.37
2022-11-14T20:24:57.522Z,10.40
2022-11-14T20:27:29.963Z,10.42
2022-11-14T20:30:02.332Z,10.43
2022-11-14T20:32:34.663Z,10.38
2022-11-14T20:35:07.748Z,10.31
2022-11-14T20:37:40.187Z,10.27
2022-11-14T20:40:14.138Z,10.27
2022-11-14T20:42:49.762Z,10.30
2022-11-14T20:45:22.188Z,10.35
2022-11-14T20:47:54.809Z,10.41
2022-11-14T20:50:25.427Z,10.42
2022-11-14T20:52:57.712Z,10.41
2022-11-14T20:55:30.195Z,10.47
2022-11-14T20:58:02.533Z,10.46
2022-11-14T21:00:34.908Z,10.45
2022-11-14T21:03:07.287Z,10.41
2022-11-14T21:05:42.560Z,10.41
2022-11-14T21:08:15.392Z,10.40
2022-11-14T21:10:49.099Z,10.38
2022-11-14T21:13:39.636Z,10.41
2022-11-14T21:16:14.478Z,10.41
2022-11-14T21:18:48.290Z,10.46
2022-11-14T21:21:23.715Z,10.47
2022-11-14T21:23:56.927Z,10.45
2022-11-14T21:26:30.940Z,10.43
2022-11-14T21:29:05.356Z,10.43
2022-11-14T21:31:38.562Z,10.46
2022-11-14T21:34:13.547Z,10.47
2022-11-14T21:36:46.966Z,10.46
2022-11-14T21:39:19.432Z,10.45
2022-11-14T21:41:51.817Z,10.47
2022-11-14T21:44:24.032Z,10.45
2022-11-14T21:46:56.257Z,10.41
2022-11-14T21:49:28.503Z,10.37
2022-11-14T21:52:00.662Z,10.34
2022-11-14T21:54:32.859Z,10.32
2022-11-14T21:57:09.718Z,10.31
2022-11-14T21:59:42.072Z,10.23
2022-11-14T22:02:33.226Z,10.21
2022-11-14T22:05:06.448Z,10.27
2022-11-14T22:07:39.225Z,10.32
2022-11-14T22:10:12.152Z,10.35
2022-11-14T22:12:44.356Z,10.38
2022-11-14T22:15:16.699Z,10.39
2022-11-14T22:17:48.916Z,10.41
2022-11-14T22:20:22.958Z,10.43
2022-11-14T22:22:58.022Z,10.43
2022-11-14T22:25:30.348Z,10.45
2022-11-14T22:28:02.579Z,10.45
2022-11-14T22:30:34.806Z,10.43
2022-11-14T22:33:07.121Z,10.42
2022-11-14T22:35:39.320Z,10.44
2022-11-14T22:38:11.516Z,10.47
2022-11-14T22:40:43.722Z,10.47
2022-11-14T22:43:15.997Z,10.48
2022-11-14T22:45:53.860Z,10.47
2022-11-14T22:48:26.841Z,10.45
2022-11-14T22:51:03.873Z,10.45
2022-11-14T22:53:37.053Z,10.48
2022-11-14T22:56:11.916Z,10.51
2022-11-14T22:58:45.006Z,10.54
2022-11-14T23:01:19.880Z,10.52
2022-11-14T23:03:57.064Z,10.53
2022-11-14T23:06:30.028Z,10.53
2022-11-14T23:09:02.380Z,10.50
2022-11-14T23:11:35.288Z,10.46
2022-11-14T23:14:07.549Z,10.45
2022-11-14T23:16:39.775Z,10.46
2022-11-14T23:19:12.018Z,10.51
2022-11-14T23:21:44.262Z,10.57
2022-11-14T23:24:17.303Z,10.58
2022-11-14T23:26:49.587Z,10.58
2022-11-14T23:29:21.808Z,10.58
2022-11-14T23:31:54.082Z,10.55
2022-11-14T23:34:26.452Z,10.49
2022-11-14T23:36:58.619Z,10.49
2022-11-14T23:39:30.904Z,10.51
2022-11-14T23:42:03.051Z,10.54
2022-11-14T23:44:35.203Z,10.58
2022-11-14T23:47:07.447Z,10.58
2022-11-14T23:49:39.566Z,10.57
2022-11-14T23:52:11.755Z,10.48
2022-11-14T23:54:43.919Z,10.39
2022-11-14T23:57:16.494Z,10.38
2022-11-14T23:59:47.137Z,10.41
